createdAt,value
2022-11-02T08:42:18.940Z,3.80
2022-11-02T08:44:46.055Z,3.70
2022-11-02T08:47:13.373Z,4.15
2022-11-02T08:49:40.434Z,4.13
2022-11-02T08:52:07.477Z,4.25
2022-11-02T08:54:34.523Z,4.20
2022-11-02T08:57:01.522Z,4.20
2022-11-02T08:59:28.562Z,3.83
2022-11-02T09:01:55.590Z,4.00
2022-11-02T09:04:22.760Z,4.30
2022-11-02T09:06:49.752Z,4.18
2022-11-02T09:09:17.074Z,4.10
2022-11-02T09:11:44.094Z,4.38
2022-11-02T09:14:11.245Z,4.60
2022-11-02T09:16:41.359Z,4.55
2022-11-02T09:19:09.042Z,4.45
2022-11-02T09:21:36.080Z,4.25
2022-11-02T09:24:07.310Z,4.13
2022-11-02T09:26:34.434Z,4.10
2022-11-02T09:29:01.499Z,4.22
2022-11-02T09:31:30.123Z,4.35
2022-11-02T09:33:57.160Z,4.90
2022-11-02T09:36:24.287Z,4.80
2022-11-02T09:38:51.363Z,4.20
2022-11-02T09:41:21.813Z,4.38
2022-11-02T09:44:07.677Z,4.32
2022-11-02T09:46:40.066Z,4.50
2022-11-02T09:49:12.488Z,4.30
2022-11-02T09:51:41.136Z,4.68
2022-11-02T09:54:27.206Z,4.30
2022-11-02T09:56:57.054Z,4.40
2022-11-02T09:59:25.200Z,4.50
2022-11-02T10:02:10.924Z,4.70
2022-11-02T10:04:50.259Z,4.60
2022-11-02T10:07:20.255Z,4.68
2022-11-02T10:09:53.940Z,4.70
2022-11-02T10:12:27.294Z,4.97
2022-11-02T10:15:02.748Z,5.18
2022-11-02T10:17:30.948Z,4.43
2022-11-02T10:19:59.660Z,5.30
2022-11-02T10:22:29.152Z,5.18
2022-11-02T10:24:57.395Z,5.60
2022-11-02T10:27:30.916Z,5.72
2022-11-02T10:30:01.158Z,5.63
2022-11-02T10:32:28.216Z,5.28
2022-11-02T10:35:04.339Z,5.30
2022-11-02T10:37:48.325Z,5.20
2022-11-02T10:40:53.783Z,5.40
2022-11-02T10:43:36.265Z,5.40
2022-11-02T10:46:15.294Z,5.38
2022-11-02T10:49:20.868Z,5.23
2022-11-02T10:51:47.916Z,5.60
2022-11-02T10:54:19.487Z,5.40
2022-11-02T10:56:50.992Z,5.28
2022-11-02T10:59:19.116Z,5.40
2022-11-02T11:01:48.093Z,5.20
2022-11-02T11:04:22.709Z,5.10
2022-11-02T11:06:49.813Z,5.50
2022-11-02T11:09:26.968Z,5.10
2022-11-02T11:11:53.965Z,5.37
2022-11-02T11:20:25.058Z,5.03
2022-11-02T11:23:08.929Z,5.50
2022-11-02T11:25:35.993Z,5.20
2022-11-02T11:28:03.454Z,5.18
2022-11-02T11:30:58.453Z,5.20
2022-11-02T11:33:20.076Z,5.30
2022-11-02T11:35:51.150Z,5.28
2022-11-02T11:38:23.311Z,5.40
2022-11-02T11:40:53.923Z,5.45
2022-11-02T11:43:22.155Z,5.37
2022-11-02T11:46:01.949Z,5.57
2022-11-02T11:48:35.246Z,5.28
2022-11-02T11:51:03.559Z,5.78
2022-11-02T11:53:30.819Z,5.78
2022-11-02T11:55:59.657Z,5.30
2022-11-02T11:58:27.658Z,5.35
2022-11-02T12:01:16.163Z,5.50
2022-11-02T12:03:56.924Z,5.50
2022-11-02T12:06:40.387Z,5.47
2022-11-02T12:09:29.782Z,5.55
2022-11-02T12:12:17.145Z,5.60
2022-11-02T12:14:44.148Z,5.50
2022-11-02T12:17:28.635Z,5.60
2022-11-02T12:20:19.344Z,5.17
2022-11-02T12:23:05.112Z,5.70
2022-11-02T12:25:32.437Z,5.45
2022-11-02T12:28:02.544Z,5.30
2022-11-02T12:30:40.500Z,5.55
2022-11-02T12:33:27.860Z,5.40
2022-11-02T12:36:01.414Z,5.53
2022-11-02T12:38:40.627Z,5.63
2022-11-02T12:41:08.827Z,5.50
2022-11-02T12:43:46.637Z,6.00
2022-11-02T12:46:20.026Z,5.33
2022-11-02T12:48:47.025Z,5.77
2022-11-02T12:51:25.519Z,6.07
2022-11-02T12:54:02.968Z,6.13
2022-11-02T12:56:50.353Z,6.45
2022-11-02T12:59:22.021Z,6.50
2022-11-02T13:01:52.890Z,6.20
2022-11-02T13:04:26.112Z,6.43
2022-11-02T13:07:00.921Z,6.72
2022-11-02T13:09:33.664Z,6.80
2022-11-02T13:12:09.669Z,7.10
2022-11-02T13:14:41.175Z,7.13
2022-11-02T13:17:15.639Z,7.63
2022-11-02T13:19:46.078Z,7.30
2022-11-02T13:22:14.826Z,7.07
2022-11-02T13:24:44.635Z,7.43
2022-11-02T13:27:35.993Z,7.40
2022-11-02T13:30:05.732Z,7.50
2022-11-02T13:32:35.531Z,8.52
2022-11-02T13:35:07.941Z,9.10
2022-11-02T13:37:36.478Z,7.90
2022-11-02T13:40:12.632Z,8.27
2022-11-02T13:42:59.276Z,8.48
2022-11-02T13:45:26.293Z,8.13
2022-11-02T13:48:11.699Z,8.52
2022-11-02T13:50:51.018Z,8.30
2022-11-02T13:53:29.868Z,8.53
2022-11-02T13:56:01.079Z,8.27
2022-11-02T13:58:31.934Z,9.18
2022-11-02T14:01:04.293Z,8.70
2022-11-02T14:03:37.425Z,8.70
2022-11-02T14:06:11.383Z,8.93
2022-11-02T14:08:40.088Z,8.77
2022-11-02T14:11:24.607Z,8.80
2022-11-02T14:13:54.613Z,9.18
2022-11-02T14:16:40.817Z,9.00
2022-11-02T14:22:40.766Z,9.23
